• Join FlightAware (Why Join?)
  • Login
  • US Flag 
11:14PM EST


 

Airport Tracker/Info


-or-


 

Live Flight TrackerFlight Track Log ✈ RPA3228 ✈ 13-Sep-2013 ✈ KDCA - KBUF

Flight Track Log - Related Links

Times and Time Zones

All times are in EDT time to prevent confusion due to time zone crossing. See the RPA3228 flight status page for this flight to view local times or setup timezone preferences in your user account.

Time Position Orientation Groundspeed Altitude Reporting Facility
EDT Latitude Longitude Course Direction KTS MPH feet Rate Location/Type
10:34AM 39.1235 -77.1436 337° Northwest  Level Estimated
10:35AM 39.2075 -77.1994 333° Northwest  Level FlightAware Approximate
10:36AM 39.2981 -77.2345 333° Northwest  Level Estimated
10:37AM 39.3887 -77.2697 339° North  Level Estimated
10:38AM 39.4793 -77.3050 339° North  Level Estimated
10:39AM 39.5698 -77.3403 North  Level Estimated
10:40AM 39.6604 -77.3758 North  Level Estimated
10:41AM 39.7509 -77.4113 North  Level Estimated
10:42AM 39.8415 -77.4470 North  Level Estimated
10:43AM 39.9320 -77.4827 North  Level Estimated
10:44AM 40.0225 -77.5185 North  Level Estimated
10:45AM 40.1130 -77.5544 North  Level Estimated
10:46AM 40.2034 -77.5905 North  Level Estimated
10:47AM 40.2939 -77.6266 North  Level Estimated
10:48AM 40.3844 -77.6628 North  Level Estimated
10:49AM 40.4748 -77.6991 North  Level Estimated
10:50AM 40.5653 -77.7355 North  Level Estimated
10:51AM 40.6557 -77.7720 North  Level Estimated
10:52AM 40.7461 -77.8086 North  Level Estimated
10:53AM 40.8225 -77.7349 36° Northeast  Level FlightAware Approximate
10:54AM 40.8988 -77.6611 36° Northeast  Level FlightAware Approximate
10:55AM 40.9871 -77.7059 North  Level Estimated
10:56AM 41.0661 -77.6369 33° Northeast  Level FlightAware Approximate
10:57AM 41.1531 -77.6861 North  Level Estimated
10:58AM 41.2381 -77.6311 26° Northeast  Level FlightAware Approximate
10:59AM 41.3237 -77.6848 North  Level Estimated
11:00AM 41.4092 -77.7386 323° Northwest  Level Estimated
11:01AM 41.4947 -77.7926 312° West  Level Estimated
11:02AM 41.5801 -77.8467 310° West  Level Estimated
11:03AM 41.6732 -77.8247 10° North  Level FlightAware Approximate
11:04AM 41.7571 -77.8833 316° Northwest  Level Estimated
11:05AM 41.8493 -77.9115 347° North  Level FlightAware Approximate
11:06AM 41.9415 -77.9397 347° North  Level FlightAware Approximate
11:07AM 42.0234 -78.0034 329° Northwest  Level Estimated
11:08AM 42.1121 -78.0477 340° North  Level FlightAware Approximate
11:09AM 42.1931 -78.1135 334° Northwest  Level Estimated
11:10AM 42.2796 -78.1650 336° Northwest  Level FlightAware Approximate
11:11AM 42.3598 -78.2328 324° Northwest  Level Estimated
11:12AM 42.4399 -78.3009 328° Northwest  Level Estimated
11:13AM 42.5200 -78.3691 330° Northwest  Level Estimated
11:14AM 42.6060 -78.4225 335° Northwest  Level FlightAware Approximate
11:15AM 42.6844 -78.4944 334° Northwest  Level Estimated
11:16AM 42.7628 -78.5665 324° Northwest  Level Estimated
11:17AM 42.8411 -78.6387 289° West  Level Estimated
11:18AM 42.9194 -78.7111 289° West  Level Estimated
11:19AM 42.9333 -78.7167 289° West  Level FlightAware Approximate
11:20AM 42.9404 -78.7306 289° West  Level Estimated
11:21AM 42.9404 -78.7306 289° West  Level Estimated
11:22AM 42.9404 -78.7306 289° West  Level Estimated
11:23AM 42.9404 -78.7306 289° West  Level Estimated
11:24AM 42.9404 -78.7306 289° West  Level Estimated
11:25AM 42.9404 -78.7306 289° West  Level Estimated
11:26AM 42.9404 -78.7306 289° West  Level Estimated
11:27AM 42.9404 -78.7306 289° West  Level Estimated
11:28AM 42.9404 -78.7306 289° West  Level Estimated
11:29AM 42.9404 -78.7306 289° West  Level Estimated
11:30AM 42.9404 -78.7306 289° West  Level Estimated
11:31AM 42.9404 -78.7306 289° West  Level Estimated
11:32AM 42.9404 -78.7306 289° West  Level Estimated
11:33AM 42.9404 -78.7306 289° West  Level Estimated
11:34AM 42.9404 -78.7306 289° West  Level Estimated
11:35AM 42.9404 -78.7306 289° West  Level Estimated